createdAt,value
2019-02-16T00:00:28.253Z,70.70
2019-02-16T00:02:56.841Z,71.58
2019-02-16T00:05:25.390Z,72.10
2019-02-16T00:07:53.933Z,71.40
2019-02-16T00:10:22.542Z,71.59
2019-02-16T00:12:51.110Z,71.27
2019-02-16T00:15:19.663Z,71.00
2019-02-16T00:17:48.245Z,69.72
2019-02-16T00:20:16.794Z,71.05
2019-02-16T00:22:45.341Z,71.60
2019-02-16T00:25:13.920Z,71.78
2019-02-16T00:27:42.499Z,72.03
2019-02-16T00:30:11.094Z,71.96
2019-02-16T00:32:39.645Z,72.70
2019-02-16T00:35:08.219Z,73.22
2019-02-16T00:37:36.835Z,74.21
2019-02-16T00:40:05.629Z,73.50
2019-02-16T00:42:34.181Z,73.23
2019-02-16T00:45:02.758Z,73.59
2019-02-16T00:47:31.342Z,72.67
2019-02-16T00:49:59.899Z,72.68
2019-02-16T00:52:28.455Z,71.91
2019-02-16T00:54:57.022Z,72.02
2019-02-16T00:57:25.610Z,72.58
2019-02-16T00:59:54.158Z,72.40
2019-02-16T01:02:22.714Z,69.55
2019-02-16T01:04:51.284Z,71.25
2019-02-16T01:07:19.842Z,71.70
2019-02-16T01:09:48.414Z,71.74
2019-02-16T01:12:16.965Z,72.38
2019-02-16T01:14:45.538Z,72.50
2019-02-16T01:17:14.118Z,72.47
2019-02-16T01:19:42.663Z,72.61
2019-02-16T01:22:11.241Z,71.85
2019-02-16T01:24:39.786Z,72.53
2019-02-16T01:27:08.332Z,72.52
2019-02-16T01:29:36.919Z,72.67
2019-02-16T01:32:05.461Z,72.34
2019-02-16T01:34:34.014Z,72.75
2019-02-16T01:37:02.583Z,72.26
2019-02-16T01:39:31.186Z,73.35
2019-02-16T01:41:59.745Z,74.01
2019-02-16T01:44:28.303Z,74.14
2019-02-16T01:46:56.883Z,74.51
2019-02-16T01:49:25.456Z,74.44
2019-02-16T01:51:53.984Z,73.93
2019-02-16T01:54:22.568Z,73.86
2019-02-16T01:56:51.920Z,74.19
2019-02-16T01:59:20.953Z,73.04
2019-02-16T02:01:50.461Z,72.67
2019-02-16T02:04:20.195Z,74.41
2019-02-16T02:06:49.508Z,74.97
2019-02-16T02:09:19.235Z,74.86
2019-02-16T02:11:48.515Z,76.68
2019-02-16T02:14:17.150Z,76.42
2019-02-16T02:16:45.730Z,76.54
2019-02-16T02:19:14.398Z,77.82
2019-02-16T02:21:42.886Z,78.96
2019-02-16T02:24:11.426Z,78.24
2019-02-16T02:26:40.320Z,78.20
2019-02-16T02:29:08.868Z,78.09
2019-02-16T02:31:37.709Z,78.10
2019-02-16T02:34:06.383Z,77.42
2019-02-16T02:36:35.008Z,77.62
2019-02-16T02:39:04.421Z,78.02
2019-02-16T02:41:33.030Z,77.96
2019-02-16T02:44:01.580Z,77.01
2019-02-16T02:46:30.127Z,77.45
2019-02-16T02:48:58.715Z,77.51
2019-02-16T02:51:27.346Z,78.49
2019-02-16T02:53:55.892Z,79.92
2019-02-16T02:56:24.473Z,80.54
2019-02-16T02:58:53.334Z,81.62
2019-02-16T03:01:21.904Z,80.99
2019-02-16T03:03:50.532Z,81.54
2019-02-16T03:06:19.503Z,80.09
2019-02-16T03:08:48.057Z,81.73
2019-02-16T03:11:16.948Z,81.29
2019-02-16T03:13:45.539Z,78.53
2019-02-16T03:16:14.419Z,77.67
2019-02-16T03:18:43.313Z,78.40
2019-02-16T03:21:11.900Z,78.62
2019-02-16T03:23:40.471Z,77.93
2019-02-16T03:26:16.270Z,78.90
2019-02-16T03:29:04.938Z,78.76
2019-02-16T03:31:56.135Z,78.13
2019-02-16T03:34:31.735Z,79.11
2019-02-16T03:37:21.052Z,78.43
2019-02-16T03:39:49.598Z,78.44
2019-02-16T03:42:18.152Z,79.98
2019-02-16T03:44:46.726Z,80.56
2019-02-16T03:47:15.275Z,80.61
2019-02-16T03:49:43.895Z,81.01
2019-02-16T03:52:14.124Z,81.23
2019-02-16T03:54:42.721Z,82.23
2019-02-16T03:57:11.357Z,81.64
2019-02-16T03:59:39.904Z,82.07
2019-02-16T04:02:08.454Z,80.94
2019-02-16T04:04:37.040Z,81.15
2019-02-16T04:07:05.589Z,81.74
2019-02-16T04:09:34.145Z,82.37
2019-02-16T04:12:02.723Z,81.93
2019-02-16T04:14:31.536Z,81.41
2019-02-16T04:17:00.128Z,81.22
2019-02-16T04:19:28.744Z,80.49
2019-02-16T04:21:57.292Z,80.22
2019-02-16T04:24:25.841Z,80.07
2019-02-16T04:26:54.416Z,80.86
2019-02-16T04:29:22.964Z,81.50
2019-02-16T04:31:51.561Z,80.92
2019-02-16T04:34:20.114Z,81.23
2019-02-16T04:36:48.672Z,81.51
2019-02-16T04:39:17.255Z,80.32
2019-02-16T04:41:45.808Z,80.93
2019-02-16T04:44:14.357Z,80.96
2019-02-16T04:46:42.970Z,81.42
2019-02-16T04:49:11.521Z,80.65
2019-02-16T04:51:40.103Z,80.49
2019-02-16T04:54:08.661Z,80.18
2019-02-16T04:56:37.244Z,79.55
2019-02-16T04:59:05.805Z,80.04
2019-02-16T05:01:34.378Z,78.79
2019-02-16T05:04:02.924Z,78.85
2019-02-16T05:06:31.470Z,80.27
2019-02-16T05:09:00.062Z,81.46
2019-02-16T05:11:28.968Z,81.28
2019-02-16T05:13:57.519Z,80.58
2019-02-16T05:16:26.101Z,79.56
2019-02-16T05:18:54.720Z,78.60
2019-02-16T05:21:23.262Z,79.27
2019-02-16T05:23:51.845Z,77.91
2019-02-16T05:26:20.392Z,76.90
2019-02-16T05:28:48.935Z,77.52
2019-02-16T05:31:17.520Z,78.01
2019-02-16T05:33:46.085Z,78.84
2019-02-16T05:36:14.642Z,79.08
2019-02-16T05:38:43.230Z,79.07
2019-02-16T05:41:11.784Z,79.02
2019-02-16T05:43:40.346Z,79.15
2019-02-16T05:46:08.921Z,80.61
2019-02-16T05:48:37.464Z,80.03
2019-02-16T05:51:06.052Z,80.06
2019-02-16T05:53:34.601Z,80.32
2019-02-16T05:56:03.180Z,80.25
2019-02-16T05:58:31.722Z,79.88
2019-02-16T06:01:00.274Z,80.04
2019-02-16T06:03:28.873Z,80.46
2019-02-16T06:05:57.432Z,80.61
2019-02-16T06:08:25.980Z,80.80
2019-02-16T06:10:54.648Z,79.35
2019-02-16T06:13:23.209Z,79.42
2019-02-16T06:15:51.757Z,79.17
2019-02-16T06:18:20.336Z,78.23
2019-02-16T06:20:48.917Z,76.05
2019-02-16T06:23:17.538Z,75.94
2019-02-16T06:25:46.115Z,76.62
2019-02-16T06:28:14.674Z,77.53
2019-02-16T06:30:43.241Z,76.71
2019-02-16T06:33:11.794Z,74.97
2019-02-16T06:36:05.267Z,75.87
2019-02-16T06:38:33.820Z,75.93
2019-02-16T06:41:02.363Z,76.85
2019-02-16T06:43:31.139Z,76.89
2019-02-16T06:46:00.897Z,77.49
2019-02-16T06:48:29.671Z,78.09
2019-02-16T06:50:58.217Z,79.09
2019-02-16T06:53:26.782Z,78.90
2019-02-16T06:56:05.183Z,78.35
2019-02-16T06:58:33.764Z,76.43
2019-02-16T07:01:02.319Z,75.82
2019-02-16T07:03:30.902Z,76.07
2019-02-16T07:05:59.444Z,76.15
2019-02-16T07:08:27.991Z,76.27
2019-02-16T07:10:56.605Z,76.46
2019-02-16T07:13:35.177Z,76.56
2019-02-16T07:16:36.794Z,75.65
2019-02-16T07:19:18.601Z,75.62
2019-02-16T07:21:47.186Z,75.96
2019-02-16T07:24:15.726Z,74.25
2019-02-16T07:26:44.329Z,74.07
2019-02-16T07:29:12.872Z,74.05
2019-02-16T07:31:41.444Z,73.59
2019-02-16T07:34:10.026Z,73.13
2019-02-16T07:36:38.569Z,73.58
2019-02-16T07:39:08.118Z,73.78
2019-02-16T07:41:36.729Z,74.39
2019-02-16T07:44:30.500Z,72.32
2019-02-16T07:47:07.497Z,70.85
2019-02-16T07:50:10.357Z,69.98
2019-02-16T07:53:09.915Z,69.92
2019-02-16T07:55:59.406Z,69.43
2019-02-16T07:58:32.639Z,67.65
2019-02-16T08:01:14.589Z,67.17
2019-02-16T08:03:50.904Z,66.40
2019-02-16T08:06:53.933Z,65.77
2019-02-16T08:09:44.393Z,64.86
2019-02-16T08:12:26.144Z,62.45
2019-02-16T08:15:14.297Z,60.44
2019-02-16T08:17:59.568Z,60.02
2019-02-16T08:20:35.779Z,59.83
2019-02-16T08:23:23.375Z,58.94
2019-02-16T08:26:04.883Z,58.71
2019-02-16T08:28:39.681Z,58.81
2019-02-16T08:31:14.036Z,57.15
2019-02-16T08:33:48.116Z,56.20
2019-02-16T08:36:34.335Z,56.17
2019-02-16T08:39:09.958Z,56.16
2019-02-16T08:41:49.550Z,55.52
2019-02-16T08:44:46.094Z,54.00
2019-02-16T08:47:36.487Z,52.72
2019-02-16T08:50:23.242Z,51.81
2019-02-16T08:53:29.293Z,50.72
2019-02-16T08:56:15.303Z,50.46
2019-02-16T08:58:53.856Z,49.97
2019-02-16T09:01:40.519Z,49.18
2019-02-16T09:04:19.500Z,49.80
2019-02-16T09:06:53.882Z,49.30
2019-02-16T09:09:40.471Z,47.70
2019-02-16T09:12:21.876Z,47.90
2019-02-16T09:15:08.164Z,47.31
2019-02-16T09:18:11.096Z,46.78
2019-02-16T09:20:58.682Z,45.72
2019-02-16T09:23:42.899Z,45.77
2019-02-16T09:26:18.902Z,45.59
2019-02-16T09:28:57.873Z,44.68
2019-02-16T09:31:45.938Z,44.11
2019-02-16T09:34:26.779Z,44.28
2019-02-16T09:37:29.238Z,42.93
2019-02-16T09:40:31.997Z,43.91
2019-02-16T09:43:10.941Z,42.75
2019-02-16T09:45:55.016Z,42.34
2019-02-16T09:48:28.722Z,41.52
2019-02-16T09:51:15.204Z,41.28
2019-02-16T09:53:53.143Z,40.88
2019-02-16T09:56:41.146Z,39.78
2019-02-16T09:59:28.781Z,39.06
2019-02-16T10:02:15.381Z,38.23
2019-02-16T10:05:05.493Z,38.50
2019-02-16T10:07:53.053Z,38.23
2019-02-16T10:10:43.942Z,37.62
2019-02-16T10:13:22.854Z,36.01
2019-02-16T10:16:08.770Z,35.31
2019-02-16T10:18:54.984Z,35.14
2019-02-16T10:21:43.402Z,34.80
2019-02-16T10:24:30.014Z,34.28
2019-02-16T10:27:16.584Z,33.10
2019-02-16T10:30:16.410Z,33.04
2019-02-16T10:33:07.656Z,32.43
2019-02-16T10:35:48.796Z,31.28
2019-02-16T10:38:25.113Z,29.76
2019-02-16T10:41:09.726Z,29.15
2019-02-16T10:44:15.767Z,28.54
2019-02-16T10:46:53.485Z,27.77
2019-02-16T10:49:31.014Z,28.14
2019-02-16T10:52:21.761Z,26.54
2019-02-16T10:55:10.364Z,26.34
2019-02-16T10:57:56.611Z,26.01
2019-02-16T11:00:43.385Z,25.70
2019-02-16T11:03:25.582Z,25.86
2019-02-16T11:06:03.691Z,25.06
2019-02-16T11:08:42.816Z,24.47
2019-02-16T11:11:21.551Z,22.96
2019-02-16T11:14:02.697Z,23.82
2019-02-16T11:16:48.516Z,25.87
2019-02-16T11:19:34.792Z,25.45
2019-02-16T11:22:09.640Z,25.76
2019-02-16T11:24:55.643Z,24.15
2019-02-16T11:27:46.109Z,24.04
2019-02-16T11:30:24.548Z,24.45
2019-02-16T11:33:04.370Z,24.62
2019-02-16T11:35:45.275Z,24.37
2019-02-16T11:38:23.449Z,24.63
2019-02-16T11:41:08.857Z,23.07
2019-02-16T11:43:52.598Z,22.07
2019-02-16T11:46:58.688Z,22.39
2019-02-16T11:49:46.984Z,21.73
2019-02-16T11:52:35.169Z,21.13
2019-02-16T11:55:36.014Z,21.16
2019-02-16T11:58:29.513Z,20.06
2019-02-16T12:01:25.717Z,20.95
2019-02-16T12:04:02.581Z,20.89
2019-02-16T12:06:35.785Z,19.35
2019-02-16T12:09:30.428Z,17.69
2019-02-16T12:12:18.030Z,17.20
2019-02-16T12:14:56.992Z,16.79
2019-02-16T12:17:47.008Z,17.07
2019-02-16T12:20:33.421Z,17.61
2019-02-16T12:23:06.299Z,21.05
2019-02-16T12:26:09.058Z,21.34
2019-02-16T12:28:55.804Z,20.78
2019-02-16T12:31:34.598Z,19.66
2019-02-16T12:34:16.127Z,20.35
2019-02-16T12:37:12.688Z,21.56
2019-02-16T12:39:46.865Z,22.86
2019-02-16T12:42:33.035Z,23.29
2019-02-16T12:45:14.872Z,23.16
2019-02-16T12:47:50.481Z,22.34
2019-02-16T12:50:34.034Z,22.04
2019-02-16T12:53:37.037Z,22.38
2019-02-16T12:56:24.067Z,21.33
2019-02-16T12:59:00.180Z,21.87
2019-02-16T13:02:06.192Z,22.93
2019-02-16T13:04:53.763Z,21.78
2019-02-16T13:07:30.794Z,21.98
2019-02-16T13:10:18.752Z,22.30
2019-02-16T13:13:09.191Z,22.18
2019-02-16T13:16:05.965Z,22.16
2019-02-16T13:18:42.282Z,21.32
2019-02-16T13:21:21.542Z,20.37
2019-02-16T13:24:04.120Z,20.48
2019-02-16T13:26:50.477Z,20.16
2019-02-16T13:29:37.177Z,20.22
2019-02-16T13:32:16.508Z,22.04
2019-02-16T13:34:57.404Z,20.76
2019-02-16T13:37:50.960Z,21.64
2019-02-16T13:40:25.872Z,23.20
2019-02-16T13:43:16.206Z,23.89
2019-02-16T13:45:52.473Z,24.80
2019-02-16T13:48:55.226Z,24.63
2019-02-16T13:51:58.201Z,23.69
2019-02-16T13:54:48.378Z,24.42
2019-02-16T13:57:31.255Z,23.62
2019-02-16T14:00:08.214Z,24.17
2019-02-16T14:02:53.214Z,25.09
2019-02-16T14:05:30.255Z,23.92
2019-02-16T14:08:20.947Z,22.54
2019-02-16T14:11:14.076Z,22.22
2019-02-16T14:13:51.924Z,22.16
2019-02-16T14:16:38.399Z,21.67
2019-02-16T14:19:06.957Z,19.53
2019-02-16T14:21:35.536Z,20.55
2019-02-16T14:24:04.157Z,20.64
2019-02-16T14:26:32.730Z,20.03
2019-02-16T14:29:01.290Z,21.31
2019-02-16T14:31:29.894Z,21.41
2019-02-16T14:33:58.445Z,20.95
2019-02-16T14:36:27.015Z,19.69
2019-02-16T14:39:13.270Z,18.57
2019-02-16T14:41:41.817Z,18.25
2019-02-16T14:44:10.375Z,19.19
2019-02-16T14:46:38.978Z,19.64
2019-02-16T14:49:07.595Z,20.04
2019-02-16T14:51:36.150Z,19.69
2019-02-16T14:54:04.736Z,18.26
2019-02-16T14:56:33.287Z,18.52
2019-02-16T14:59:01.919Z,18.70
2019-02-16T15:01:30.464Z,17.54
2019-02-16T15:03:59.021Z,18.25
2019-02-16T15:06:27.611Z,17.58
2019-02-16T15:08:56.199Z,17.88
2019-02-16T15:11:24.754Z,19.03
2019-02-16T15:13:53.309Z,19.29
2019-02-16T15:16:21.890Z,21.66
2019-02-16T15:18:50.439Z,22.81
2019-02-16T15:21:19.043Z,25.07
2019-02-16T15:23:47.631Z,25.12
2019-02-16T15:26:16.186Z,24.95
2019-02-16T15:28:44.793Z,26.27
2019-02-16T15:31:13.380Z,26.27
2019-02-16T15:33:41.950Z,26.95
2019-02-16T15:36:10.549Z,26.79
2019-02-16T15:38:39.109Z,27.80
2019-02-16T15:41:07.667Z,29.89
2019-02-16T15:43:36.266Z,32.60
2019-02-16T15:46:04.855Z,34.46
2019-02-16T15:48:33.429Z,35.45
2019-02-16T15:51:02.023Z,36.66
2019-02-16T15:53:30.916Z,39.41
2019-02-16T15:55:59.469Z,41.23
2019-02-16T15:58:28.077Z,43.58
2019-02-16T16:00:56.657Z,46.77
2019-02-16T16:03:25.629Z,49.15
2019-02-16T16:05:54.606Z,52.20
2019-02-16T16:08:48.298Z,55.26
2019-02-16T16:11:48.212Z,58.08
2019-02-16T16:14:27.446Z,57.25
2019-02-16T16:17:18.161Z,58.53
2019-02-16T16:20:08.535Z,59.86
2019-02-16T16:22:56.127Z,60.84
2019-02-16T16:25:46.268Z,60.92
2019-02-16T16:28:32.844Z,61.28
2019-02-16T16:31:21.414Z,63.32
2019-02-16T16:34:11.856Z,64.20
2019-02-16T16:37:11.965Z,61.85
2019-02-16T16:39:58.310Z,61.09
2019-02-16T16:42:46.392Z,63.59
2019-02-16T16:45:33.907Z,64.28
2019-02-16T16:48:20.340Z,65.63
2019-02-16T16:51:07.948Z,67.03
2019-02-16T16:54:07.932Z,68.35
2019-02-16T16:56:58.345Z,68.42
2019-02-16T16:59:45.933Z,70.77
2019-02-16T17:02:45.819Z,70.53
2019-02-16T17:05:39.494Z,71.26
2019-02-16T17:08:26.294Z,70.33
2019-02-16T17:11:17.070Z,71.46
2019-02-16T17:14:16.802Z,72.97
2019-02-16T17:16:59.331Z,73.45
2019-02-16T17:19:37.237Z,73.05
2019-02-16T17:22:14.595Z,75.12
2019-02-16T17:25:05.363Z,75.71
2019-02-16T17:27:47.809Z,76.20
2019-02-16T17:30:29.940Z,74.05
2019-02-16T17:33:23.082Z,74.73
2019-02-16T17:35:57.435Z,75.44
2019-02-16T17:38:41.852Z,76.44
2019-02-16T17:41:22.242Z,77.75
2019-02-16T17:43:56.738Z,78.74
2019-02-16T17:46:41.219Z,78.85
2019-02-16T17:49:33.362Z,77.89
2019-02-16T17:52:20.042Z,77.34
2019-02-16T17:55:06.496Z,77.16
2019-02-16T17:57:43.229Z,76.67
2019-02-16T18:00:40.270Z,78.04
2019-02-16T18:03:26.520Z,78.63
2019-02-16T18:06:06.014Z,79.34
2019-02-16T18:09:02.493Z,79.45
2019-02-16T18:11:41.406Z,78.56
2019-02-16T18:14:29.012Z,78.90
2019-02-16T18:17:17.570Z,78.65
2019-02-16T18:20:05.162Z,79.54
2019-02-16T18:22:48.443Z,79.60
2019-02-16T18:25:36.070Z,79.98
2019-02-16T18:28:28.012Z,80.30
2019-02-16T18:31:19.413Z,80.16
2019-02-16T18:34:07.001Z,80.00
2019-02-16T18:36:54.572Z,79.82
2019-02-16T18:39:42.236Z,81.32
2019-02-16T18:42:28.310Z,82.71
2019-02-16T18:45:14.686Z,82.23
2019-02-16T18:48:06.008Z,81.98
2019-02-16T18:51:05.840Z,82.15
2019-02-16T18:53:56.213Z,82.12
2019-02-16T18:56:42.783Z,81.13
2019-02-16T18:59:28.285Z,82.05
2019-02-16T19:02:05.132Z,82.65
2019-02-16T19:04:58.819Z,82.95
2019-02-16T19:07:41.607Z,83.19
2019-02-16T19:10:44.622Z,84.05
2019-02-16T19:13:32.247Z,83.07
2019-02-16T19:16:32.210Z,82.84
2019-02-16T19:19:18.664Z,82.02
2019-02-16T19:22:03.872Z,81.55
2019-02-16T19:24:39.585Z,81.51
2019-02-16T19:27:16.894Z,82.94
2019-02-16T19:29:56.693Z,83.43
2019-02-16T19:32:41.182Z,83.13
2019-02-16T19:35:38.253Z,83.11
2019-02-16T19:38:16.922Z,83.98
2019-02-16T19:41:07.314Z,83.90
2019-02-16T19:43:54.897Z,84.75
2019-02-16T19:46:45.688Z,84.25
2019-02-16T19:49:36.438Z,84.35
2019-02-16T19:52:27.416Z,84.12
2019-02-16T19:55:14.143Z,84.46
2019-02-16T19:57:53.954Z,83.97
2019-02-16T20:00:34.826Z,83.71
2019-02-16T20:03:17.714Z,84.00
2019-02-16T20:06:08.209Z,86.14
2019-02-16T20:08:45.710Z,86.14
2019-02-16T20:11:32.857Z,86.82
2019-02-16T20:14:26.477Z,87.02
2019-02-16T20:17:16.513Z,86.69
2019-02-16T20:19:52.587Z,86.35
2019-02-16T20:22:45.990Z,86.02
2019-02-16T20:25:49.021Z,85.94
2019-02-16T20:28:37.972Z,85.69
2019-02-16T20:31:28.914Z,85.96
2019-02-16T20:34:09.441Z,86.93
2019-02-16T20:37:03.215Z,86.34
2019-02-16T20:39:43.876Z,85.85
2019-02-16T20:42:31.424Z,86.84
2019-02-16T20:45:12.703Z,86.84
2019-02-16T20:48:06.393Z,86.94
2019-02-16T20:51:00.557Z,87.37
2019-02-16T20:53:48.402Z,86.99
2019-02-16T20:56:21.812Z,88.02
2019-02-16T20:59:08.318Z,87.93
2019-02-16T21:01:44.589Z,87.97
2019-02-16T21:04:41.277Z,87.99
2019-02-16T21:07:27.792Z,87.84
2019-02-16T21:10:10.441Z,88.54
2019-02-16T21:12:58.004Z,88.35
2019-02-16T21:15:40.494Z,88.59
2019-02-16T21:18:28.089Z,88.16
2019-02-16T21:21:06.437Z,88.72
2019-02-16T21:24:00.205Z,88.79
2019-02-16T21:26:39.827Z,89.01
2019-02-16T21:29:20.626Z,89.15
2019-02-16T21:32:01.568Z,88.87
2019-02-16T21:34:38.379Z,88.71
2019-02-16T21:37:34.807Z,88.88
2019-02-16T21:40:13.249Z,88.66
2019-02-16T21:42:50.589Z,88.52
2019-02-16T21:45:27.405Z,88.56
2019-02-16T21:48:08.650Z,88.34
2019-02-16T21:50:50.784Z,88.76
2019-02-16T21:53:38.730Z,88.78
2019-02-16T21:56:20.414Z,88.70
2019-02-16T21:59:07.711Z,88.90
2019-02-16T22:01:56.670Z,88.75
2019-02-16T22:04:30.909Z,88.60
2019-02-16T22:07:18.481Z,88.92
2019-02-16T22:10:02.706Z,88.45
2019-02-16T22:12:50.272Z,88.95
2019-02-16T22:15:18.869Z,89.02
2019-02-16T22:17:47.433Z,89.19
2019-02-16T22:20:15.990Z,88.83
2019-02-16T22:22:44.599Z,88.78
2019-02-16T22:25:13.165Z,89.25
2019-02-16T22:27:41.729Z,89.39
2019-02-16T22:30:10.669Z,89.46
2019-02-16T22:32:39.214Z,89.06
2019-02-16T22:35:08.170Z,89.54
2019-02-16T22:37:36.721Z,89.61
2019-02-16T22:40:05.497Z,89.10
2019-02-16T22:42:34.086Z,89.40
2019-02-16T22:45:02.709Z,90.14
2019-02-16T22:47:31.265Z,89.31
2019-02-16T22:49:59.839Z,88.93
2019-02-16T22:52:28.421Z,88.85
2019-02-16T22:54:57.011Z,89.01
2019-02-16T22:57:26.220Z,89.29
2019-02-16T22:59:54.776Z,89.51
2019-02-16T23:02:23.350Z,89.66
2019-02-16T23:04:51.899Z,89.77
2019-02-16T23:07:20.478Z,89.90
2019-02-16T23:09:49.026Z,89.68
2019-02-16T23:12:17.618Z,89.52
2019-02-16T23:14:46.507Z,89.50
2019-02-16T23:17:15.063Z,89.08
2019-02-16T23:19:43.641Z,89.31
2019-02-16T23:22:12.216Z,89.92
2019-02-16T23:24:40.809Z,89.77
2019-02-16T23:27:09.381Z,89.69
2019-02-16T23:29:37.955Z,89.68
2019-02-16T23:32:06.556Z,89.62
2019-02-16T23:34:35.103Z,89.83
2019-02-16T23:37:03.657Z,89.73
2019-02-16T23:39:32.245Z,89.43
2019-02-16T23:42:00.801Z,89.92
2019-02-16T23:44:29.354Z,89.91
2019-02-16T23:46:57.963Z,89.59
2019-02-16T23:49:26.524Z,89.23
2019-02-16T23:51:55.120Z,89.14
2019-02-16T23:54:23.672Z,88.94
2019-02-16T23:56:52.229Z,88.96
2019-02-16T23:59:20.818Z,89.21
